sensor_id;sensor_type;location;lat;lon;timestamp;P1;durP1;ratioP1;P2;durP2;ratioP2
13419;SDS011;6781;58.440;15.470;2023-05-28T00:00:15;4.10;;;2.13;;
13419;SDS011;6781;58.440;15.470;2023-05-28T00:02:52;5.47;;;2.30;;
13419;SDS011;6781;58.440;15.470;2023-05-28T00:05:21;3.85;;;2.33;;
13419;SDS011;6781;58.440;15.470;2023-05-28T00:07:51;5.85;;;2.40;;
13419;SDS011;6781;58.440;15.470;2023-05-28T00:10:19;7.75;;;2.45;;
13419;SDS011;6781;58.440;15.470;2023-05-28T00:12:49;5.95;;;2.25;;
13419;SDS011;6781;58.440;15.470;2023-05-28T00:15:16;7.45;;;2.70;;
13419;SDS011;6781;58.440;15.470;2023-05-28T00:20:58;4.65;;;2.58;;
13419;SDS011;6781;58.440;15.470;2023-05-28T00:23:20;6.30;;;3.25;;
13419;SDS011;6781;58.440;15.470;2023-05-28T00:25:57;6.03;;;2.63;;
13419;SDS011;6781;58.440;15.470;2023-05-28T00:28:26;4.88;;;2.50;;
13419;SDS011;6781;58.440;15.470;2023-05-28T00:31:02;6.78;;;2.80;;
13419;SDS011;6781;58.440;15.470;2023-05-28T00:33:30;6.28;;;2.83;;
13419;SDS011;6781;58.440;15.470;2023-05-28T00:36:00;7.13;;;2.80;;
13419;SDS011;6781;58.440;15.470;2023-05-28T00:38:37;6.63;;;2.78;;
13419;SDS011;6781;58.440;15.470;2023-05-28T00:44:15;5.72;;;2.47;;
13419;SDS011;6781;58.440;15.470;2023-05-28T00:46:44;7.35;;;2.58;;
13419;SDS011;6781;58.440;15.470;2023-05-28T00:49:18;4.78;;;2.85;;
13419;SDS011;6781;58.440;15.470;2023-05-28T00:51:50;4.78;;;2.30;;
13419;SDS011;6781;58.440;15.470;2023-05-28T00:54:25;7.85;;;2.28;;
13419;SDS011;6781;58.440;15.470;2023-05-28T00:56:57;5.90;;;2.83;;
13419;SDS011;6781;58.440;15.470;2023-05-28T00:59:30;7.00;;;2.67;;
13419;SDS011;6781;58.440;15.470;2023-05-28T01:02:05;5.10;;;2.90;;
13419;SDS011;6781;58.440;15.470;2023-05-28T01:04:35;5.10;;;2.72;;
13419;SDS011;6781;58.440;15.470;2023-05-28T01:07:06;5.45;;;2.60;;
13419;SDS011;6781;58.440;15.470;2023-05-28T01:09:39;5.40;;;2.50;;
13419;SDS011;6781;58.440;15.470;2023-05-28T01:12:14;9.35;;;3.13;;
13419;SDS011;6781;58.440;15.470;2023-05-28T01:14:45;5.13;;;2.72;;
13419;SDS011;6781;58.440;15.470;2023-05-28T01:17:18;5.90;;;2.90;;
13419;SDS011;6781;58.440;15.470;2023-05-28T01:19:46;7.90;;;2.70;;
13419;SDS011;6781;58.440;15.470;2023-05-28T01:22:18;6.70;;;2.58;;
13419;SDS011;6781;58.440;15.470;2023-05-28T01:25:00;6.40;;;2.60;;
13419;SDS011;6781;58.440;15.470;2023-05-28T01:27:34;6.20;;;2.63;;
13419;SDS011;6781;58.440;15.470;2023-05-28T01:30:08;7.47;;;2.70;;
13419;SDS011;6781;58.440;15.470;2023-05-28T01:32:47;5.70;;;2.85;;
13419;SDS011;6781;58.440;15.470;2023-05-28T01:35:25;7.07;;;2.90;;
13419;SDS011;6781;58.440;15.470;2023-05-28T01:38:01;8.02;;;2.78;;
13419;SDS011;6781;58.440;15.470;2023-05-28T01:40:31;3.58;;;2.70;;
13419;SDS011;6781;58.440;15.470;2023-05-28T01:43:03;5.32;;;2.47;;
13419;SDS011;6781;58.440;15.470;2023-05-28T01:45:37;7.68;;;2.80;;
13419;SDS011;6781;58.440;15.470;2023-05-28T01:48:26;5.75;;;2.97;;
13419;SDS011;6781;58.440;15.470;2023-05-28T01:51:02;5.80;;;2.80;;
13419;SDS011;6781;58.440;15.470;2023-05-28T01:53:32;4.82;;;2.75;;
13419;SDS011;6781;58.440;15.470;2023-05-28T01:56:02;6.97;;;2.60;;
13419;SDS011;6781;58.440;15.470;2023-05-28T01:58:30;6.43;;;2.75;;
13419;SDS011;6781;58.440;15.470;2023-05-28T02:00:59;5.63;;;3.05;;
13419;SDS011;6781;58.440;15.470;2023-05-28T02:03:36;5.95;;;2.50;;
13419;SDS011;6781;58.440;15.470;2023-05-28T02:08:38;7.07;;;2.53;;
13419;SDS011;6781;58.440;15.470;2023-05-28T02:11:22;7.57;;;2.58;;
13419;SDS011;6781;58.440;15.470;2023-05-28T02:13:52;6.00;;;3.33;;
13419;SDS011;6781;58.440;15.470;2023-05-28T02:16:19;5.15;;;2.33;;
13419;SDS011;6781;58.440;15.470;2023-05-28T02:18:55;4.80;;;2.47;;
13419;SDS011;6781;58.440;15.470;2023-05-28T02:21:26;5.80;;;2.63;;
13419;SDS011;6781;58.440;15.470;2023-05-28T02:23:57;6.63;;;2.55;;
13419;SDS011;6781;58.440;15.470;2023-05-28T02:26:28;7.85;;;2.92;;
13419;SDS011;6781;58.440;15.470;2023-05-28T02:28:57;6.28;;;2.50;;
13419;SDS011;6781;58.440;15.470;2023-05-28T02:31:24;4.57;;;2.40;;
13419;SDS011;6781;58.440;15.470;2023-05-28T02:33:58;5.70;;;2.30;;
13419;SDS011;6781;58.440;15.470;2023-05-28T02:36:30;5.68;;;2.70;;
13419;SDS011;6781;58.440;15.470;2023-05-28T02:38:58;4.43;;;2.50;;
13419;SDS011;6781;58.440;15.470;2023-05-28T02:41:25;8.50;;;2.72;;
13419;SDS011;6781;58.440;15.470;2023-05-28T02:44:01;5.85;;;2.83;;
13419;SDS011;6781;58.440;15.470;2023-05-28T02:46:28;8.30;;;2.70;;
13419;SDS011;6781;58.440;15.470;2023-05-28T02:48:56;4.90;;;2.50;;
13419;SDS011;6781;58.440;15.470;2023-05-28T02:51:39;3.83;;;2.33;;
13419;SDS011;6781;58.440;15.470;2023-05-28T02:54:06;6.75;;;2.40;;
13419;SDS011;6781;58.440;15.470;2023-05-28T02:56:35;5.78;;;2.47;;
13419;SDS011;6781;58.440;15.470;2023-05-28T02:59:06;7.68;;;2.83;;
13419;SDS011;6781;58.440;15.470;2023-05-28T03:01:39;5.15;;;2.78;;
13419;SDS011;6781;58.440;15.470;2023-05-28T03:04:06;5.82;;;2.40;;
13419;SDS011;6781;58.440;15.470;2023-05-28T03:06:38;4.80;;;2.70;;
13419;SDS011;6781;58.440;15.470;2023-05-28T03:09:25;10.82;;;3.40;;
13419;SDS011;6781;58.440;15.470;2023-05-28T03:11:56;3.10;;;2.47;;
13419;SDS011;6781;58.440;15.470;2023-05-28T03:14:23;7.85;;;2.67;;
13419;SDS011;6781;58.440;15.470;2023-05-28T03:16:53;4.55;;;2.50;;
13419;SDS011;6781;58.440;15.470;2023-05-28T03:19:28;8.52;;;2.97;;
13419;SDS011;6781;58.440;15.470;2023-05-28T03:22:03;6.25;;;2.42;;
13419;SDS011;6781;58.440;15.470;2023-05-28T03:24:38;6.25;;;2.78;;
13419;SDS011;6781;58.440;15.470;2023-05-28T03:27:13;5.10;;;2.28;;
13419;SDS011;6781;58.440;15.470;2023-05-28T03:29:57;6.18;;;2.85;;
13419;SDS011;6781;58.440;15.470;2023-05-28T03:32:31;6.80;;;2.78;;
13419;SDS011;6781;58.440;15.470;2023-05-28T03:35:19;8.93;;;2.67;;
13419;SDS011;6781;58.440;15.470;2023-05-28T03:37:46;5.80;;;2.50;;
13419;SDS011;6781;58.440;15.470;2023-05-28T03:40:14;8.55;;;2.83;;
13419;SDS011;6781;58.440;15.470;2023-05-28T03:42:47;5.78;;;2.67;;
13419;SDS011;6781;58.440;15.470;2023-05-28T03:45:14;5.95;;;3.00;;
13419;SDS011;6781;58.440;15.470;2023-05-28T03:47:42;6.07;;;2.85;;
13419;SDS011;6781;58.440;15.470;2023-05-28T03:50:17;5.15;;;2.95;;
13419;SDS011;6781;58.440;15.470;2023-05-28T03:52:46;4.80;;;2.83;;
13419;SDS011;6781;58.440;15.470;2023-05-28T03:55:19;4.53;;;2.50;;
13419;SDS011;6781;58.440;15.470;2023-05-28T04:00:42;7.13;;;3.05;;
13419;SDS011;6781;58.440;15.470;2023-05-28T04:03:13;9.73;;;2.90;;
13419;SDS011;6781;58.440;15.470;2023-05-28T04:05:49;8.20;;;3.70;;
13419;SDS011;6781;58.440;15.470;2023-05-28T04:08:34;7.32;;;3.28;;
13419;SDS011;6781;58.440;15.470;2023-05-28T04:11:30;9.75;;;3.55;;
13419;SDS011;6781;58.440;15.470;2023-05-28T04:14:01;7.88;;;3.60;;
13419;SDS011;6781;58.440;15.470;2023-05-28T04:16:32;7.38;;;4.20;;
13419;SDS011;6781;58.440;15.470;2023-05-28T04:19:02;12.45;;;3.42;;
13419;SDS011;6781;58.440;15.470;2023-05-28T04:21:34;14.32;;;4.35;;
13419;SDS011;6781;58.440;15.470;2023-05-28T04:24:03;8.38;;;4.00;;
13419;SDS011;6781;58.440;15.470;2023-05-28T04:26:36;15.10;;;3.90;;
13419;SDS011;6781;58.440;15.470;2023-05-28T04:29:11;8.82;;;3.90;;
13419;SDS011;6781;58.440;15.470;2023-05-28T04:31:41;6.25;;;3.42;;
13419;SDS011;6781;58.440;15.470;2023-05-28T04:34:09;8.00;;;3.72;;
13419;SDS011;6781;58.440;15.470;2023-05-28T04:36:36;7.72;;;4.05;;
13419;SDS011;6781;58.440;15.470;2023-05-28T04:39:03;6.85;;;3.63;;
13419;SDS011;6781;58.440;15.470;2023-05-28T04:41:55;7.43;;;3.47;;
13419;SDS011;6781;58.440;15.470;2023-05-28T04:44:41;6.85;;;3.75;;
13419;SDS011;6781;58.440;15.470;2023-05-28T04:47:10;10.10;;;3.75;;
13419;SDS011;6781;58.440;15.470;2023-05-28T04:49:39;5.40;;;3.90;;
13419;SDS011;6781;58.440;15.470;2023-05-28T04:52:07;6.55;;;3.90;;
13419;SDS011;6781;58.440;15.470;2023-05-28T04:54:37;8.88;;;3.47;;
13419;SDS011;6781;58.440;15.470;2023-05-28T04:57:05;7.80;;;3.45;;
13419;SDS011;6781;58.440;15.470;2023-05-28T04:59:32;6.47;;;3.28;;
13419;SDS011;6781;58.440;15.470;2023-05-28T05:02:02;8.00;;;3.60;;
13419;SDS011;6781;58.440;15.470;2023-05-28T05:04:29;6.40;;;3.30;;
13419;SDS011;6781;58.440;15.470;2023-05-28T05:07:00;6.47;;;3.17;;
13419;SDS011;6781;58.440;15.470;2023-05-28T05:09:30;10.07;;;3.35;;
13419;SDS011;6781;58.440;15.470;2023-05-28T05:12:00;6.28;;;3.30;;
13419;SDS011;6781;58.440;15.470;2023-05-28T05:14:30;5.60;;;3.40;;
13419;SDS011;6781;58.440;15.470;2023-05-28T05:16:58;5.93;;;3.33;;
13419;SDS011;6781;58.440;15.470;2023-05-28T05:19:30;7.68;;;3.00;;
13419;SDS011;6781;58.440;15.470;2023-05-28T05:21:58;6.55;;;3.28;;
13419;SDS011;6781;58.440;15.470;2023-05-28T05:24:25;6.53;;;2.83;;
13419;SDS011;6781;58.440;15.470;2023-05-28T05:26:54;7.38;;;3.00;;
13419;SDS011;6781;58.440;15.470;2023-05-28T05:29:27;7.72;;;2.95;;
13419;SDS011;6781;58.440;15.470;2023-05-28T05:31:59;6.32;;;2.80;;
13419;SDS011;6781;58.440;15.470;2023-05-28T05:34:35;5.82;;;2.75;;
13419;SDS011;6781;58.440;15.470;2023-05-28T05:37:04;6.90;;;2.83;;
13419;SDS011;6781;58.440;15.470;2023-05-28T05:39:37;9.13;;;2.88;;
13419;SDS011;6781;58.440;15.470;2023-05-28T05:42:07;6.93;;;2.70;;
13419;SDS011;6781;58.440;15.470;2023-05-28T05:44:37;5.95;;;2.75;;
13419;SDS011;6781;58.440;15.470;2023-05-28T05:47:05;4.97;;;2.83;;
13419;SDS011;6781;58.440;15.470;2023-05-28T05:49:34;8.10;;;2.53;;
13419;SDS011;6781;58.440;15.470;2023-05-28T05:52:02;6.95;;;3.13;;
13419;SDS011;6781;58.440;15.470;2023-05-28T05:54:29;6.82;;;3.13;;
13419;SDS011;6781;58.440;15.470;2023-05-28T05:56:56;7.40;;;3.45;;
13419;SDS011;6781;58.440;15.470;2023-05-28T05:59:27;5.90;;;2.65;;
13419;SDS011;6781;58.440;15.470;2023-05-28T06:02:04;7.70;;;2.85;;
13419;SDS011;6781;58.440;15.470;2023-05-28T06:04:31;6.95;;;2.95;;
13419;SDS011;6781;58.440;15.470;2023-05-28T06:07:06;6.80;;;2.60;;
13419;SDS011;6781;58.440;15.470;2023-05-28T06:09:36;4.28;;;2.50;;
13419;SDS011;6781;58.440;15.470;2023-05-28T06:12:03;7.03;;;2.60;;
13419;SDS011;6781;58.440;15.470;2023-05-28T06:14:31;5.13;;;2.70;;
13419;SDS011;6781;58.440;15.470;2023-05-28T06:17:00;9.30;;;2.53;;
13419;SDS011;6781;58.440;15.470;2023-05-28T06:19:28;4.68;;;2.42;;
13419;SDS011;6781;58.440;15.470;2023-05-28T06:21:57;7.68;;;2.70;;
13419;SDS011;6781;58.440;15.470;2023-05-28T06:24:24;7.28;;;2.50;;
13419;SDS011;6781;58.440;15.470;2023-05-28T06:26:54;4.10;;;2.42;;
13419;SDS011;6781;58.440;15.470;2023-05-28T06:29:24;5.55;;;2.28;;
13419;SDS011;6781;58.440;15.470;2023-05-28T06:31:51;5.95;;;2.20;;
13419;SDS011;6781;58.440;15.470;2023-05-28T06:34:18;8.63;;;2.65;;
13419;SDS011;6781;58.440;15.470;2023-05-28T06:36:47;3.35;;;1.98;;
13419;SDS011;6781;58.440;15.470;2023-05-28T06:39:19;5.70;;;2.30;;
13419;SDS011;6781;58.440;15.470;2023-05-28T06:41:47;5.65;;;2.10;;
13419;SDS011;6781;58.440;15.470;2023-05-28T06:44:18;4.22;;;2.38;;
13419;SDS011;6781;58.440;15.470;2023-05-28T06:46:45;4.50;;;2.10;;
13419;SDS011;6781;58.440;15.470;2023-05-28T06:49:13;6.20;;;1.92;;
13419;SDS011;6781;58.440;15.470;2023-05-28T06:51:40;11.15;;;2.78;;
13419;SDS011;6781;58.440;15.470;2023-05-28T06:54:07;4.75;;;2.17;;
13419;SDS011;6781;58.440;15.470;2023-05-28T06:56:36;9.80;;;2.20;;
13419;SDS011;6781;58.440;15.470;2023-05-28T06:59:03;6.75;;;2.20;;
13419;SDS011;6781;58.440;15.470;2023-05-28T07:01:30;7.38;;;1.88;;
13419;SDS011;6781;58.440;15.470;2023-05-28T07:03:57;5.72;;;1.95;;
13419;SDS011;6781;58.440;15.470;2023-05-28T07:06:27;5.13;;;1.98;;
13419;SDS011;6781;58.440;15.470;2023-05-28T07:08:55;7.53;;;2.08;;
13419;SDS011;6781;58.440;15.470;2023-05-28T07:11:22;3.63;;;2.05;;
13419;SDS011;6781;58.440;15.470;2023-05-28T07:13:52;6.60;;;2.60;;
13419;SDS011;6781;58.440;15.470;2023-05-28T07:16:20;6.53;;;2.00;;
13419;SDS011;6781;58.440;15.470;2023-05-28T07:18:47;5.78;;;1.83;;
13419;SDS011;6781;58.440;15.470;2023-05-28T07:21:15;4.15;;;1.98;;
13419;SDS011;6781;58.440;15.470;2023-05-28T07:23:42;7.45;;;2.35;;
13419;SDS011;6781;58.440;15.470;2023-05-28T07:26:11;6.50;;;1.85;;
13419;SDS011;6781;58.440;15.470;2023-05-28T07:28:39;8.68;;;2.28;;
13419;SDS011;6781;58.440;15.470;2023-05-28T07:31:07;12.85;;;2.35;;
13419;SDS011;6781;58.440;15.470;2023-05-28T07:33:35;8.02;;;2.00;;
13419;SDS011;6781;58.440;15.470;2023-05-28T07:36:04;6.65;;;1.80;;
13419;SDS011;6781;58.440;15.470;2023-05-28T07:38:33;5.82;;;1.63;;
13419;SDS011;6781;58.440;15.470;2023-05-28T07:41:00;6.50;;;2.13;;
13419;SDS011;6781;58.440;15.470;2023-05-28T07:43:28;9.93;;;2.10;;
13419;SDS011;6781;58.440;15.470;2023-05-28T07:45:55;10.73;;;2.10;;
13419;SDS011;6781;58.440;15.470;2023-05-28T07:48:27;2.83;;;1.50;;
13419;SDS011;6781;58.440;15.470;2023-05-28T07:51:02;6.50;;;1.92;;
13419;SDS011;6781;58.440;15.470;2023-05-28T07:53:31;13.05;;;2.03;;
13419;SDS011;6781;58.440;15.470;2023-05-28T07:55:58;8.80;;;2.28;;
13419;SDS011;6781;58.440;15.470;2023-05-28T07:58:25;5.15;;;1.70;;
13419;SDS011;6781;58.440;15.470;2023-05-28T08:00:56;4.97;;;1.52;;
13419;SDS011;6781;58.440;15.470;2023-05-28T08:03:24;3.75;;;1.50;;
13419;SDS011;6781;58.440;15.470;2023-05-28T08:05:52;1.90;;;1.38;;
13419;SDS011;6781;58.440;15.470;2023-05-28T08:08:20;6.72;;;2.03;;
13419;SDS011;6781;58.440;15.470;2023-05-28T08:10:47;14.15;;;2.10;;
13419;SDS011;6781;58.440;15.470;2023-05-28T08:13:17;8.95;;;1.55;;
13419;SDS011;6781;58.440;15.470;2023-05-28T08:15:44;4.80;;;1.67;;
13419;SDS011;6781;58.440;15.470;2023-05-28T08:18:11;9.68;;;1.85;;
13419;SDS011;6781;58.440;15.470;2023-05-28T08:20:39;3.30;;;1.45;;
13419;SDS011;6781;58.440;15.470;2023-05-28T08:23:07;6.82;;;1.80;;
13419;SDS011;6781;58.440;15.470;2023-05-28T08:25:34;2.42;;;1.35;;
13419;SDS011;6781;58.440;15.470;2023-05-28T08:28:02;4.38;;;1.80;;
13419;SDS011;6781;58.440;15.470;2023-05-28T08:30:30;10.43;;;1.88;;
13419;SDS011;6781;58.440;15.470;2023-05-28T08:32:58;2.85;;;1.60;;
13419;SDS011;6781;58.440;15.470;2023-05-28T08:35:25;5.78;;;2.03;;
13419;SDS011;6781;58.440;15.470;2023-05-28T08:40:39;3.78;;;1.52;;
13419;SDS011;6781;58.440;15.470;2023-05-28T08:43:08;3.33;;;1.42;;
13419;SDS011;6781;58.440;15.470;2023-05-28T08:45:39;5.40;;;1.50;;
13419;SDS011;6781;58.440;15.470;2023-05-28T08:48:06;5.75;;;1.38;;
13419;SDS011;6781;58.440;15.470;2023-05-28T08:50:35;6.65;;;1.50;;
13419;SDS011;6781;58.440;15.470;2023-05-28T08:53:06;3.17;;;1.73;;
13419;SDS011;6781;58.440;15.470;2023-05-28T08:55:39;3.28;;;1.60;;
13419;SDS011;6781;58.440;15.470;2023-05-28T08:58:07;6.75;;;1.83;;
13419;SDS011;6781;58.440;15.470;2023-05-28T09:00:36;4.55;;;1.63;;
13419;SDS011;6781;58.440;15.470;2023-05-28T09:03:04;7.80;;;1.73;;
13419;SDS011;6781;58.440;15.470;2023-05-28T09:05:33;2.97;;;1.52;;
13419;SDS011;6781;58.440;15.470;2023-05-28T09:08:02;4.55;;;1.85;;
13419;SDS011;6781;58.440;15.470;2023-05-28T09:10:40;6.20;;;2.03;;
13419;SDS011;6781;58.440;15.470;2023-05-28T09:13:10;4.90;;;1.85;;
13419;SDS011;6781;58.440;15.470;2023-05-28T09:15:56;9.95;;;2.78;;
13419;SDS011;6781;58.440;15.470;2023-05-28T09:18:24;5.10;;;1.73;;
13419;SDS011;6781;58.440;15.470;2023-05-28T09:20:51;4.88;;;1.80;;
13419;SDS011;6781;58.440;15.470;2023-05-28T09:23:19;7.10;;;1.90;;
13419;SDS011;6781;58.440;15.470;2023-05-28T09:25:47;13.75;;;2.25;;
13419;SDS011;6781;58.440;15.470;2023-05-28T09:28:16;6.68;;;2.35;;
13419;SDS011;6781;58.440;15.470;2023-05-28T09:30:45;5.50;;;2.08;;
13419;SDS011;6781;58.440;15.470;2023-05-28T09:33:13;22.65;;;2.58;;
13419;SDS011;6781;58.440;15.470;2023-05-28T09:35:43;5.88;;;1.90;;
13419;SDS011;6781;58.440;15.470;2023-05-28T09:38:11;11.38;;;2.40;;
13419;SDS011;6781;58.440;15.470;2023-05-28T09:40:38;5.35;;;2.22;;
13419;SDS011;6781;58.440;15.470;2023-05-28T09:43:08;6.75;;;2.17;;
13419;SDS011;6781;58.440;15.470;2023-05-28T09:45:36;4.68;;;2.00;;
13419;SDS011;6781;58.440;15.470;2023-05-28T09:48:08;9.63;;;2.25;;
13419;SDS011;6781;58.440;15.470;2023-05-28T09:50:36;8.32;;;2.10;;
13419;SDS011;6781;58.440;15.470;2023-05-28T09:53:11;4.03;;;1.67;;
13419;SDS011;6781;58.440;15.470;2023-05-28T09:55:42;18.40;;;2.33;;
13419;SDS011;6781;58.440;15.470;2023-05-28T09:58:17;6.47;;;1.88;;
13419;SDS011;6781;58.440;15.470;2023-05-28T10:00:52;12.27;;;2.40;;
13419;SDS011;6781;58.440;15.470;2023-05-28T10:03:22;8.50;;;1.95;;
13419;SDS011;6781;58.440;15.470;2023-05-28T10:05:52;15.30;;;2.47;;
13419;SDS011;6781;58.440;15.470;2023-05-28T10:08:22;15.82;;;2.90;;
13419;SDS011;6781;58.440;15.470;2023-05-28T10:10:52;6.28;;;1.88;;
13419;SDS011;6781;58.440;15.470;2023-05-28T10:13:21;3.63;;;1.65;;
13419;SDS011;6781;58.440;15.470;2023-05-28T10:15:49;4.65;;;2.20;;
13419;SDS011;6781;58.440;15.470;2023-05-28T10:18:17;8.52;;;2.38;;
13419;SDS011;6781;58.440;15.470;2023-05-28T10:20:46;4.65;;;1.90;;
13419;SDS011;6781;58.440;15.470;2023-05-28T10:23:13;5.80;;;2.00;;
13419;SDS011;6781;58.440;15.470;2023-05-28T10:25:42;6.70;;;2.30;;
13419;SDS011;6781;58.440;15.470;2023-05-28T10:28:09;4.45;;;1.85;;
13419;SDS011;6781;58.440;15.470;2023-05-28T10:30:42;2.47;;;1.70;;
13419;SDS011;6781;58.440;15.470;2023-05-28T10:33:11;5.65;;;1.95;;
13419;SDS011;6781;58.440;15.470;2023-05-28T10:35:49;5.38;;;2.60;;
13419;SDS011;6781;58.440;15.470;2023-05-28T10:38:17;5.75;;;1.92;;
13419;SDS011;6781;58.440;15.470;2023-05-28T10:40:44;6.18;;;1.92;;
13419;SDS011;6781;58.440;15.470;2023-05-28T10:46:16;5.78;;;2.45;;
13419;SDS011;6781;58.440;15.470;2023-05-28T10:51:54;4.63;;;2.20;;
13419;SDS011;6781;58.440;15.470;2023-05-28T10:57:09;5.03;;;1.92;;
13419;SDS011;6781;58.440;15.470;2023-05-28T10:59:37;3.88;;;1.60;;
13419;SDS011;6781;58.440;15.470;2023-05-28T11:02:07;3.30;;;1.70;;
13419;SDS011;6781;58.440;15.470;2023-05-28T11:04:35;6.18;;;2.00;;
13419;SDS011;6781;58.440;15.470;2023-05-28T11:07:05;4.50;;;1.90;;
13419;SDS011;6781;58.440;15.470;2023-05-28T11:09:32;4.57;;;2.00;;
13419;SDS011;6781;58.440;15.470;2023-05-28T11:12:01;6.00;;;2.00;;
13419;SDS011;6781;58.440;15.470;2023-05-28T11:14:29;3.60;;;2.00;;
13419;SDS011;6781;58.440;15.470;2023-05-28T11:17:00;2.10;;;1.42;;
13419;SDS011;6781;58.440;15.470;2023-05-28T11:19:29;3.85;;;1.58;;
13419;SDS011;6781;58.440;15.470;2023-05-28T11:21:56;15.55;;;2.40;;
13419;SDS011;6781;58.440;15.470;2023-05-28T11:24:23;10.50;;;2.17;;
13419;SDS011;6781;58.440;15.470;2023-05-28T11:26:51;2.67;;;1.58;;
13419;SDS011;6781;58.440;15.470;2023-05-28T11:29:19;8.30;;;1.80;;
13419;SDS011;6781;58.440;15.470;2023-05-28T11:31:47;8.10;;;1.88;;
13419;SDS011;6781;58.440;15.470;2023-05-28T11:34:18;6.55;;;1.95;;
13419;SDS011;6781;58.440;15.470;2023-05-28T11:36:48;5.72;;;1.73;;
13419;SDS011;6781;58.440;15.470;2023-05-28T11:39:15;4.18;;;1.73;;
13419;SDS011;6781;58.440;15.470;2023-05-28T11:41:42;5.05;;;1.83;;
13419;SDS011;6781;58.440;15.470;2023-05-28T11:44:18;4.10;;;1.65;;
13419;SDS011;6781;58.440;15.470;2023-05-28T11:46:48;4.75;;;1.70;;
13419;SDS011;6781;58.440;15.470;2023-05-28T11:49:16;3.90;;;1.65;;
13419;SDS011;6781;58.440;15.470;2023-05-28T11:51:44;3.35;;;2.13;;
13419;SDS011;6781;58.440;15.470;2023-05-28T11:54:13;1.63;;;1.25;;
13419;SDS011;6781;58.440;15.470;2023-05-28T11:56:40;4.35;;;1.63;;
13419;SDS011;6781;58.440;15.470;2023-05-28T11:59:07;3.40;;;1.50;;
13419;SDS011;6781;58.440;15.470;2023-05-28T12:01:35;6.10;;;1.42;;
13419;SDS011;6781;58.440;15.470;2023-05-28T12:04:03;3.22;;;1.45;;
13419;SDS011;6781;58.440;15.470;2023-05-28T12:06:31;4.80;;;1.38;;
13419;SDS011;6781;58.440;15.470;2023-05-28T12:09:07;2.70;;;1.45;;
13419;SDS011;6781;58.440;15.470;2023-05-28T12:11:36;2.00;;;1.25;;
13419;SDS011;6781;58.440;15.470;2023-05-28T12:14:10;3.50;;;1.60;;
13419;SDS011;6781;58.440;15.470;2023-05-28T12:16:43;6.53;;;1.42;;
13419;SDS011;6781;58.440;15.470;2023-05-28T12:19:13;2.10;;;1.20;;
13419;SDS011;6781;58.440;15.470;2023-05-28T12:21:40;2.33;;;1.25;;
13419;SDS011;6781;58.440;15.470;2023-05-28T12:24:11;4.68;;;1.70;;
13419;SDS011;6781;58.440;15.470;2023-05-28T12:26:41;3.03;;;1.48;;
13419;SDS011;6781;58.440;15.470;2023-05-28T12:29:08;2.78;;;1.42;;
13419;SDS011;6781;58.440;15.470;2023-05-28T12:31:36;3.78;;;1.25;;
13419;SDS011;6781;58.440;15.470;2023-05-28T12:34:03;3.97;;;1.63;;
13419;SDS011;6781;58.440;15.470;2023-05-28T12:36:30;4.43;;;1.40;;
13419;SDS011;6781;58.440;15.470;2023-05-28T12:38:59;3.40;;;1.27;;
13419;SDS011;6781;58.440;15.470;2023-05-28T12:41:28;3.33;;;1.60;;
13419;SDS011;6781;58.440;15.470;2023-05-28T12:43:57;2.42;;;1.40;;
13419;SDS011;6781;58.440;15.470;2023-05-28T12:46:23;3.22;;;1.50;;
13419;SDS011;6781;58.440;15.470;2023-05-28T12:48:50;2.92;;;1.25;;
13419;SDS011;6781;58.440;15.470;2023-05-28T12:51:17;2.53;;;1.40;;
13419;SDS011;6781;58.440;15.470;2023-05-28T12:53:44;4.32;;;1.17;;
13419;SDS011;6781;58.440;15.470;2023-05-28T12:56:11;3.85;;;1.30;;
13419;SDS011;6781;58.440;15.470;2023-05-28T12:58:38;2.30;;;1.13;;
13419;SDS011;6781;58.440;15.470;2023-05-28T13:01:07;2.75;;;1.30;;
13419;SDS011;6781;58.440;15.470;2023-05-28T13:03:34;2.05;;;1.00;;
13419;SDS011;6781;58.440;15.470;2023-05-28T13:06:01;3.30;;;1.02;;
13419;SDS011;6781;58.440;15.470;2023-05-28T13:08:30;3.17;;;1.30;;
13419;SDS011;6781;58.440;15.470;2023-05-28T13:10:56;2.15;;;1.27;;
13419;SDS011;6781;58.440;15.470;2023-05-28T13:13:23;3.63;;;1.52;;
13419;SDS011;6781;58.440;15.470;2023-05-28T13:15:50;2.55;;;1.25;;
13419;SDS011;6781;58.440;15.470;2023-05-28T13:18:21;4.05;;;1.42;;
13419;SDS011;6781;58.440;15.470;2023-05-28T13:20:49;3.08;;;1.40;;
13419;SDS011;6781;58.440;15.470;2023-05-28T13:26:07;3.45;;;1.20;;
13419;SDS011;6781;58.440;15.470;2023-05-28T13:28:34;1.65;;;1.17;;
13419;SDS011;6781;58.440;15.470;2023-05-28T13:36:46;2.28;;;1.15;;
13419;SDS011;6781;58.440;15.470;2023-05-28T13:39:16;3.08;;;1.10;;
13419;SDS011;6781;58.440;15.470;2023-05-28T13:41:47;4.30;;;1.20;;
13419;SDS011;6781;58.440;15.470;2023-05-28T13:44:14;3.95;;;1.50;;
13419;SDS011;6781;58.440;15.470;2023-05-28T13:46:41;2.17;;;1.20;;
13419;SDS011;6781;58.440;15.470;2023-05-28T13:49:10;2.80;;;0.80;;
13419;SDS011;6781;58.440;15.470;2023-05-28T13:51:37;1.75;;;0.85;;
13419;SDS011;6781;58.440;15.470;2023-05-28T13:54:10;1.98;;;0.77;;
13419;SDS011;6781;58.440;15.470;2023-05-28T13:56:38;1.13;;;0.85;;
13419;SDS011;6781;58.440;15.470;2023-05-28T13:59:06;1.85;;;0.85;;
13419;SDS011;6781;58.440;15.470;2023-05-28T14:01:34;2.58;;;1.00;;
13419;SDS011;6781;58.440;15.470;2023-05-28T14:04:01;3.35;;;1.25;;
13419;SDS011;6781;58.440;15.470;2023-05-28T14:06:30;2.70;;;1.10;;
13419;SDS011;6781;58.440;15.470;2023-05-28T14:08:57;3.88;;;1.10;;
13419;SDS011;6781;58.440;15.470;2023-05-28T14:11:26;1.60;;;0.85;;
13419;SDS011;6781;58.440;15.470;2023-05-28T14:13:53;1.60;;;1.08;;
13419;SDS011;6781;58.440;15.470;2023-05-28T14:16:20;3.85;;;0.93;;
13419;SDS011;6781;58.440;15.470;2023-05-28T14:18:47;2.60;;;0.93;;
13419;SDS011;6781;58.440;15.470;2023-05-28T14:21:17;4.03;;;1.10;;
13419;SDS011;6781;58.440;15.470;2023-05-28T14:23:45;1.92;;;1.05;;
13419;SDS011;6781;58.440;15.470;2023-05-28T14:26:12;2.00;;;1.00;;
13419;SDS011;6781;58.440;15.470;2023-05-28T14:28:40;1.85;;;1.30;;
13419;SDS011;6781;58.440;15.470;2023-05-28T14:31:07;1.60;;;1.00;;
13419;SDS011;6781;58.440;15.470;2023-05-28T14:33:34;1.60;;;1.10;;
13419;SDS011;6781;58.440;15.470;2023-05-28T14:36:07;5.05;;;1.13;;
13419;SDS011;6781;58.440;15.470;2023-05-28T14:38:35;3.05;;;1.23;;
13419;SDS011;6781;58.440;15.470;2023-05-28T14:41:01;4.88;;;1.42;;
13419;SDS011;6781;58.440;15.470;2023-05-28T14:43:30;2.10;;;1.30;;
13419;SDS011;6781;58.440;15.470;2023-05-28T14:45:59;3.45;;;1.10;;
13419;SDS011;6781;58.440;15.470;2023-05-28T14:48:27;4.05;;;1.00;;
13419;SDS011;6781;58.440;15.470;2023-05-28T14:50:54;1.63;;;1.00;;
13419;SDS011;6781;58.440;15.470;2023-05-28T14:53:21;3.03;;;1.40;;
13419;SDS011;6781;58.440;15.470;2023-05-28T14:55:54;1.27;;;0.90;;
13419;SDS011;6781;58.440;15.470;2023-05-28T14:58:21;2.90;;;1.10;;
13419;SDS011;6781;58.440;15.470;2023-05-28T15:00:51;2.72;;;1.25;;
13419;SDS011;6781;58.440;15.470;2023-05-28T15:03:23;1.05;;;0.85;;
13419;SDS011;6781;58.440;15.470;2023-05-28T15:05:53;1.75;;;0.82;;
13419;SDS011;6781;58.440;15.470;2023-05-28T15:08:23;3.38;;;1.20;;
13419;SDS011;6781;58.440;15.470;2023-05-28T15:10:53;2.83;;;1.00;;
13419;SDS011;6781;58.440;15.470;2023-05-28T15:13:20;2.67;;;1.00;;
13419;SDS011;6781;58.440;15.470;2023-05-28T15:15:47;2.30;;;1.08;;
13419;SDS011;6781;58.440;15.470;2023-05-28T15:18:14;1.65;;;1.08;;
13419;SDS011;6781;58.440;15.470;2023-05-28T15:20:44;3.58;;;1.23;;
13419;SDS011;6781;58.440;15.470;2023-05-28T15:23:11;2.92;;;1.40;;
13419;SDS011;6781;58.440;15.470;2023-05-28T15:25:38;1.02;;;0.98;;
13419;SDS011;6781;58.440;15.470;2023-05-28T15:28:06;5.97;;;1.40;;
13419;SDS011;6781;58.440;15.470;2023-05-28T15:30:34;2.08;;;1.20;;
13419;SDS011;6781;58.440;15.470;2023-05-28T15:33:06;1.63;;;1.10;;
13419;SDS011;6781;58.440;15.470;2023-05-28T15:35:40;2.17;;;1.02;;